Time;durP1;ratioP1;P1;durP2;ratioP2;P2;SDS_P1;SDS_P2;PMS_P1;PMS_P2;Temp;Humidity;BMP_temperature;BMP_pressure;BME280_temperature;BME280_humidity;BME280_pressure;Samples;Min_cycle;Max_cycle;Signal;HPM_P1;HPM_P2
2021/04/13 00:01:25;;;;;;;;;18.25;17.00;;;;;13.37;46.21;99293.81;6211064;28;126829;-65
2021/04/13 00:04:27;;;;;;;;;21.00;17.00;;;;;13.37;45.70;99297.34;6194756;28;124977;-65
2021/04/13 00:07:31;;;;;;;;;16.00;15.75;;;;;13.29;45.26;99303.06;6213978;28;125169;-64
2021/04/13 00:10:41;;;;;;;;;16.40;15.40;;;;;13.27;45.08;99294.34;6210616;28;126205;-65
2021/04/13 00:13:43;;;;;;;;;15.50;14.00;;;;;13.17;45.19;99298.66;6209749;28;126113;-65
2021/04/13 00:16:47;;;;;;;;;17.00;16.00;;;;;13.15;45.34;99298.03;6226273;28;126929;-64
2021/04/13 00:19:56;;;;;;;;;15.80;14.00;;;;;13.02;45.36;99304.44;6210062;28;126111;-65
2021/04/13 00:22:59;;;;;;;;;15.00;15.00;;;;;12.90;45.90;99285.41;6207617;28;124987;-65
2021/04/13 00:26:03;;;;;;;;;14.40;14.00;;;;;12.91;45.83;99310.59;6208234;28;124931;-64
2021/04/13 00:29:11;;;;;;;;;15.80;14.20;;;;;12.87;45.64;99301.28;6210201;28;126989;-65
2021/04/13 00:32:15;;;;;;;;;18.60;16.00;;;;;12.74;45.91;99304.97;6192377;28;126087;-64
2021/04/13 00:35:29;;;;;;;;;15.00;15.00;;;;;12.75;46.40;99303.94;6205043;28;124703;-65
2021/04/13 00:38:33;;;;;;;;;14.00;13.00;;;;;12.62;46.39;99298.66;6210784;28;124565;-64
2021/04/13 00:41:35;;;;;;;;;14.60;14.00;;;;;12.69;46.64;99310.25;6208274;28;125606;-64
2021/04/13 00:44:47;;;;;;;;;11.80;10.40;;;;;12.73;45.76;99314.16;6198826;28;125685;-64
2021/04/13 00:47:54;;;;;;;;;11.25;11.00;;;;;12.71;44.85;99316.25;6187731;28;124979;-65
2021/04/13 00:51:03;;;;;;;;;12.00;11.50;;;;;12.53;45.09;99319.75;6199114;28;125224;-65
2021/04/13 00:54:09;;;;;;;;;10.80;10.00;;;;;12.34;45.23;99317.25;6176367;28;125785;-65
2021/04/13 00:57:19;;;;;;;;;11.00;11.00;;;;;12.32;45.23;99330.16;6191885;28;124866;-64
2021/04/13 01:00:24;;;;;;;;;10.60;10.00;;;;;12.19;45.10;99327.59;6210072;28;124938;-64
2021/04/13 01:03:29;;;;;;;;;9.00;9.00;;;;;12.02;45.93;99332.72;6186792;28;126038;-64
2021/04/13 01:06:33;;;;;;;;;9.67;8.67;;;;;11.96;45.78;99328.19;6208898;28;127085;-64
2021/04/13 01:09:43;;;;;;;;;8.60;8.00;;;;;11.97;45.92;99338.75;6205930;28;123420;-64
2021/04/13 01:12:51;;;;;;;;;10.00;9.00;;;;;11.87;46.06;99334.91;6208919;28;125816;-66
2021/04/13 01:15:53;;;;;;;;;9.00;8.00;;;;;11.78;46.26;99339.75;6185447;28;124139;-66
2021/04/13 01:18:59;;;;;;;;;10.00;10.00;;;;;11.75;46.49;99351.00;6191838;28;124562;-65
2021/04/13 01:22:10;;;;;;;;;11.00;11.00;;;;;11.71;46.74;99350.56;6189761;28;126136;-66
2021/04/13 01:25:20;;;;;;;;;11.00;10.00;;;;;11.73;46.84;99350.38;6208425;28;126914;-66
2021/04/13 01:28:26;;;;;;;;;9.00;8.40;;;;;11.72;46.83;99356.81;6190592;28;126037;-66
2021/04/13 01:31:44;;;;;;;;;12.00;10.00;;;;;11.43;46.80;99333.09;6208307;28;125959;-66
2021/04/13 01:34:57;;;;;;;;;8.20;8.20;;;;;11.57;46.43;99357.09;6203787;28;126648;-66
2021/04/13 01:38:03;;;;;;;;;9.80;8.00;;;;;11.46;46.59;99365.06;6185872;28;125804;-66
2021/04/13 01:41:22;;;;;;;;;8.00;8.00;;;;;11.34;46.96;99359.50;6180803;28;125413;-66
2021/04/13 01:44:35;;;;;;;;;9.00;8.00;;;;;11.24;46.93;99370.75;6223880;28;125987;-66
2021/04/13 01:47:38;;;;;;;;;10.00;9.00;;;;;11.09;47.63;99380.16;6191766;28;125680;-65
2021/04/13 01:50:43;;;;;;;;;9.25;8.00;;;;;11.17;47.05;99364.56;6209242;28;126673;-65
2021/04/13 01:53:49;;;;;;;;;9.40;9.00;;;;;11.11;47.54;99376.22;6190783;28;125665;-65
2021/04/13 01:57:01;;;;;;;;;9.00;9.00;;;;;11.05;47.10;99377.03;6175333;28;123263;-64
2021/04/13 02:00:15;;;;;;;;;9.00;9.00;;;;;11.01;47.31;99372.28;6179307;28;124935;-64
2021/04/13 02:03:24;;;;;;;;;10.75;10.50;;;;;11.04;47.57;99378.13;6206651;28;126469;-65
2021/04/13 02:06:32;;;;;;;;;13.50;13.00;;;;;10.93;47.64;99388.72;6209077;28;125995;-64
2021/04/13 02:09:41;;;;;;;;;13.00;12.00;;;;;10.90;47.65;99384.56;6175988;28;124805;-65
2021/04/13 02:12:46;;;;;;;;;12.80;12.00;;;;;10.99;47.79;99387.88;6208937;28;125571;-65
2021/04/13 02:15:56;;;;;;;;;13.60;13.60;;;;;10.97;47.56;99396.19;6209713;28;125060;-65
2021/04/13 02:19:01;;;;;;;;;12.00;12.00;;;;;10.85;47.79;99406.78;6202063;28;124711;-64
2021/04/13 02:22:08;;;;;;;;;16.00;14.00;;;;;10.90;47.25;99405.34;6211032;28;124658;-64
2021/04/13 02:25:14;;;;;;;;;16.75;15.00;;;;;10.84;47.40;99407.00;6213068;28;126758;-64
2021/04/13 02:28:18;;;;;;;;;15.00;15.00;;;;;10.85;47.50;99416.72;6211995;28;127409;-64
2021/04/13 02:31:37;;;;;;;;;18.50;17.00;;;;;10.86;47.27;99418.41;6212566;28;124976;-65
2021/04/13 02:34:45;;;;;;;;;20.00;19.00;;;;;10.69;47.17;99427.97;6213526;28;126670;-65
2021/04/13 02:37:50;;;;;;;;;21.00;20.00;;;;;10.51;47.26;99425.06;6209140;28;126145;-64
2021/04/13 02:40:59;;;;;;;;;21.00;20.00;;;;;10.43;47.33;99420.72;6200198;28;124909;-64
2021/04/13 02:44:07;;;;;;;;;21.00;19.00;;;;;10.38;47.39;99418.66;6211516;28;126963;-64
2021/04/13 02:47:14;;;;;;;;;21.00;20.00;;;;;10.26;47.60;99412.22;6192981;28;123799;-65
2021/04/13 02:50:19;;;;;;;;;21.00;20.00;;;;;10.37;47.40;99410.78;6199529;28;122747;-65
2021/04/13 02:53:26;;;;;;;;;21.80;20.40;;;;;10.40;47.36;99410.38;6211457;28;125828;-65
2021/04/13 02:56:32;;;;;;;;;17.20;17.00;;;;;10.47;47.28;99415.75;6212737;28;124865;-65
2021/04/13 02:59:38;;;;;;;;;20.00;18.00;;;;;10.44;47.42;99406.22;6193589;28;125997;-64
2021/04/13 03:02:45;;;;;;;;;20.40;18.40;;;;;10.43;47.35;99416.19;6194617;28;124819;-65
2021/04/13 03:05:51;;;;;;;;;15.33;15.33;;;;;10.51;47.43;99414.28;6192293;28;124862;-65
2021/04/13 03:08:54;;;;;;;;;15.60;14.60;;;;;10.42;47.58;99419.91;6209175;28;125873;-65
2021/04/13 03:12:01;;;;;;;;;16.40;15.00;;;;;10.49;47.34;99416.38;6174618;28;125409;-64
2021/04/13 03:15:06;;;;;;;;;17.25;15.00;;;;;10.52;47.25;99410.56;6191957;28;126222;-64
2021/04/13 03:18:15;;;;;;;;;17.00;16.00;;;;;10.55;47.07;99418.25;6194076;28;124199;-64
2021/04/13 03:21:22;;;;;;;;;16.00;15.00;;;;;10.52;47.30;99414.09;6193750;28;123816;-64
2021/04/13 03:24:29;;;;;;;;;17.00;16.00;;;;;10.57;47.21;99421.56;6203660;28;126181;-65
2021/04/13 03:27:33;;;;;;;;;19.00;17.00;;;;;10.47;47.17;99426.53;6193000;28;124866;-65
2021/04/13 03:30:38;;;;;;;;;16.00;13.00;;;;;10.43;47.04;99428.81;6200607;28;126044;-64
2021/04/13 03:33:42;;;;;;;;;17.00;16.00;;;;;10.42;47.13;99433.38;6173266;28;124259;-65
2021/04/13 03:36:46;;;;;;;;;17.00;16.50;;;;;10.37;47.59;99432.34;6211329;28;126026;-64
2021/04/13 03:39:50;;;;;;;;;18.00;15.00;;;;;10.38;47.38;99437.53;6210146;28;125213;-65
2021/04/13 03:42:57;;;;;;;;;15.00;14.00;;;;;10.34;47.35;99443.53;6177629;28;123803;-65
2021/04/13 03:46:04;;;;;;;;;15.60;13.60;;;;;10.27;47.72;99442.69;6210990;28;124069;-65
2021/04/13 03:49:11;;;;;;;;;15.00;15.00;;;;;10.35;47.54;99448.75;6211917;28;124977;-65
2021/04/13 03:52:18;;;;;;;;;16.00;14.00;;;;;10.34;47.08;99448.94;6210638;28;125597;-65
2021/04/13 03:55:23;;;;;;;;;15.00;13.40;;;;;10.41;47.56;99463.22;6211174;28;124694;-66
2021/04/13 03:58:30;;;;;;;;;14.00;13.00;;;;;10.41;47.46;99452.44;6195390;28;124769;-65
2021/04/13 04:01:35;;;;;;;;;14.00;14.00;;;;;10.39;47.65;99452.69;6207458;28;126299;-65
2021/04/13 04:04:41;;;;;;;;;14.00;13.50;;;;;10.44;47.36;99465.53;6193438;28;126016;-65
2021/04/13 04:07:50;;;;;;;;;14.00;12.00;;;;;10.45;47.56;99464.50;6194372;28;125333;-64
2021/04/13 04:10:54;;;;;;;;;11.00;10.00;;;;;10.47;47.40;99461.56;6197453;28;125055;-64
2021/04/13 04:13:57;;;;;;;;;10.80;10.00;;;;;10.49;47.24;99467.59;6167349;28;125881;-65
2021/04/13 04:17:07;;;;;;;;;12.40;11.00;;;;;10.38;46.94;99442.91;6200878;28;126033;-65
2021/04/13 04:20:12;;;;;;;;;13.20;11.80;;;;;10.61;46.82;99485.63;6204119;28;124537;-65
2021/04/13 04:23:16;;;;;;;;;11.00;11.00;;;;;10.58;47.16;99486.06;6202341;28;124702;-65
2021/04/13 04:26:23;;;;;;;;;12.00;11.00;;;;;10.60;47.24;99480.47;6209863;28;126044;-64
2021/04/13 04:29:39;;;;;;;;;10.00;10.00;;;;;10.50;47.03;99491.66;6209754;28;126737;-65
2021/04/13 04:32:43;;;;;;;;;10.00;9.00;;;;;10.59;47.21;99494.97;6197772;28;125963;-64
2021/04/13 04:35:45;;;;;;;;;13.00;13.00;;;;;10.50;47.22;99474.66;6192104;28;126100;-66
2021/04/13 04:38:48;;;;;;;;;10.50;10.00;;;;;10.48;47.08;99472.16;6189571;28;126490;-65
2021/04/13 04:41:55;;;;;;;;;13.00;12.00;;;;;10.63;46.85;99496.22;6208851;28;126128;-65
2021/04/13 04:45:12;;;;;;;;;11.80;11.40;;;;;10.66;46.94;99501.19;6192157;28;124394;-65
2021/04/13 04:48:21;;;;;;;;;11.20;10.60;;;;;10.59;47.25;99505.78;6192095;28;126868;-65
2021/04/13 04:51:23;;;;;;;;;11.60;10.20;;;;;10.54;47.15;99508.25;6210092;28;124503;-64
2021/04/13 04:54:25;;;;;;;;;11.60;11.60;;;;;10.55;47.14;99513.44;6209428;28;126913;-64
2021/04/13 04:57:28;;;;;;;;;13.00;12.00;;;;;10.59;47.07;99522.78;6207825;28;126574;-65
2021/04/13 05:00:30;;;;;;;;;12.00;12.00;;;;;10.59;46.92;99527.34;6166411;28;125255;-64
2021/04/13 05:03:32;;;;;;;;;12.40;12.40;;;;;10.59;47.06;99525.47;6184640;28;125467;-65
2021/04/13 05:06:34;;;;;;;;;14.00;14.00;;;;;10.60;47.42;99527.16;6207457;28;125081;-64
2021/04/13 05:09:37;;;;;;;;;13.00;13.00;;;;;10.70;46.86;99529.44;6206017;28;126814;-65
2021/04/13 05:12:40;;;;;;;;;14.00;13.00;;;;;10.74;46.90;99538.75;6208133;28;126320;-65
2021/04/13 05:15:42;;;;;;;;;13.80;12.00;;;;;10.77;46.74;99535.63;6207827;28;126195;-64
2021/04/13 05:18:44;;;;;;;;;15.00;12.00;;;;;10.66;46.31;99526.28;6197146;28;126540;-65
2021/04/13 05:21:47;;;;;;;;;14.25;13.50;;;;;10.76;46.84;99539.38;6203877;28;126491;-64
2021/04/13 05:24:49;;;;;;;;;14.40;14.00;;;;;10.82;46.88;99541.25;6208383;28;126855;-65
2021/04/13 05:27:52;;;;;;;;;13.60;13.00;;;;;10.83;46.56;99548.31;6205353;28;126546;-64
2021/04/13 05:30:54;;;;;;;;;15.00;14.00;;;;;10.82;46.49;99538.53;6197490;28;127352;-65
2021/04/13 05:33:56;;;;;;;;;11.00;11.00;;;;;10.73;46.29;99537.09;6204802;28;126412;-65
2021/04/13 05:36:59;;;;;;;;;12.00;12.00;;;;;10.76;46.09;99539.38;6208125;28;127143;-64
2021/04/13 05:40:03;;;;;;;;;13.00;12.00;;;;;10.81;46.11;99547.66;6199512;28;127020;-64
2021/04/13 05:43:06;;;;;;;;;11.00;10.20;;;;;10.68;46.01;99515.31;6184397;28;126411;-64
2021/04/13 05:46:08;;;;;;;;;10.00;10.00;;;;;10.97;46.01;99541.88;6210881;28;126137;-63
2021/04/13 05:49:11;;;;;;;;;10.00;9.00;;;;;10.87;45.79;99552.25;6208270;28;126335;-64
2021/04/13 05:52:14;;;;;;;;;10.20;9.00;;;;;10.91;45.99;99552.66;6197950;28;125278;-64
2021/04/13 05:55:16;;;;;;;;;12.00;11.00;;;;;10.91;45.98;99558.03;6189106;28;126444;-65
2021/04/13 05:58:23;;;;;;;;;9.80;9.80;;;;;10.85;45.80;99563.22;6207249;28;126895;-64
2021/04/13 06:01:27;;;;;;;;;11.40;10.40;;;;;10.95;45.95;99561.97;6181913;28;123773;-63
2021/04/13 06:04:30;;;;;;;;;11.00;11.00;;;;;10.92;46.16;99570.50;6206206;28;124587;-64
2021/04/13 06:07:32;;;;;;;;;13.20;13.20;;;;;10.84;46.22;99568.84;6206581;28;125002;-64
2021/04/13 06:10:34;;;;;;;;;12.60;12.00;;;;;10.86;46.06;99564.06;6207407;28;125622;-65
2021/04/13 06:13:37;;;;;;;;;13.00;12.00;;;;;10.88;46.19;99572.78;6188503;28;126414;-66
2021/04/13 06:16:40;;;;;;;;;13.60;12.00;;;;;10.86;46.26;99575.69;6204164;28;127447;-64
2021/04/13 06:19:44;;;;;;;;;12.25;11.25;;;;;10.85;46.44;99586.69;6187501;28;123731;-65
2021/04/13 06:22:47;;;;;;;;;11.20;11.20;;;;;10.87;46.25;99579.22;6207241;28;126621;-64
2021/04/13 06:25:50;;;;;;;;;15.00;14.00;;;;;10.88;46.01;99591.69;6186945;28;128092;-65
2021/04/13 06:28:53;;;;;;;;;12.25;12.25;;;;;10.72;45.86;99560.53;6207272;28;126336;-64
2021/04/13 06:31:55;;;;;;;;;13.00;12.60;;;;;10.94;45.95;99593.56;6190028;28;123783;-65
2021/04/13 06:34:58;;;;;;;;;13.00;12.00;;;;;10.85;46.32;99600.16;6206659;28;124974;-64
2021/04/13 06:38:02;;;;;;;;;23.40;22.80;;;;;10.93;46.79;99601.84;6207877;28;124483;-64
2021/04/13 06:41:37;;;;;;;;;11.40;10.40;;;;;11.00;45.92;99603.50;6206883;28;127854;-64
2021/04/13 06:45:11;;;;;;;;;12.00;12.00;;;;;11.03;45.98;99597.72;6187360;28;124663;-66
2021/04/13 06:48:49;;;;;;;;;9.00;9.00;;;;;11.09;45.34;99598.75;6202276;28;125002;-65
2021/04/13 06:52:02;;;;;;;;;9.00;9.00;;;;;11.19;45.27;99605.38;6157838;28;125798;-64
2021/04/13 06:55:12;;;;;;;;;9.40;8.40;;;;;11.14;45.65;99601.66;6197866;28;127141;-64
2021/04/13 06:58:26;;;;;;;;;6.00;5.80;;;;;11.25;45.04;99612.63;6208086;28;125871;-64
2021/04/13 07:01:33;;;;;;;;;7.00;7.00;;;;;11.38;45.23;99610.97;6205824;28;126037;-64
2021/04/13 07:04:42;;;;;;;;;5.00;5.00;;;;;11.46;44.98;99611.59;6193441;28;125442;-64
2021/04/13 07:07:52;;;;;;;;;8.00;7.00;;;;;11.46;44.73;99614.28;6189855;28;124575;-64
2021/04/13 07:11:02;;;;;;;;;6.00;6.00;;;;;11.41;44.90;99615.94;6191874;28;125389;-64
2021/04/13 07:14:08;;;;;;;;;8.00;7.00;;;;;11.43;45.60;99622.81;6206840;28;127062;-64
2021/04/13 07:17:18;;;;;;;;;6.25;6.00;;;;;11.52;44.71;99615.31;6211905;28;126680;-64
2021/04/13 07:20:23;;;;;;;;;8.00;7.00;;;;;11.64;44.53;99616.31;6195782;28;126610;-64
2021/04/13 07:23:32;;;;;;;;;7.00;7.00;;;;;11.70;44.93;99607.38;6211508;28;124825;-64
2021/04/13 07:26:38;;;;;;;;;8.80;8.80;;;;;11.54;44.56;99586.22;6194341;28;124955;-64
2021/04/13 07:29:44;;;;;;;;;7.00;7.00;;;;;11.54;44.46;99614.06;6211902;28;126195;-64
2021/04/13 07:32:47;;;;;;;;;8.40;8.40;;;;;11.60;43.94;99618.63;6212858;28;126039;-64
2021/04/13 07:35:54;;;;;;;;;7.40;6.00;;;;;11.56;44.28;99612.00;6211090;28;126672;-64
2021/04/13 07:38:57;;;;;;;;;5.20;5.20;;;;;11.59;44.00;99610.72;6211952;28;124745;-65
2021/04/13 07:42:04;;;;;;;;;5.20;5.20;;;;;11.64;44.50;99619.03;6205790;28;126385;-64
2021/04/13 07:45:21;;;;;;;;;5.75;5.75;;;;;11.64;43.89;99616.31;6200298;28;126840;-64
2021/04/13 07:48:51;;;;;;;;;6.00;5.00;;;;;11.58;43.13;99618.00;6203926;28;125134;-64
2021/04/13 07:51:57;;;;;;;;;5.00;4.00;;;;;11.62;42.67;99621.13;6186078;28;124937;-64
2021/04/13 07:55:06;;;;;;;;;5.00;5.00;;;;;11.60;43.15;99615.94;6180669;28;126134;-64
2021/04/13 07:58:16;;;;;;;;;4.50;4.50;;;;;11.63;43.02;99618.19;6184264;28;123842;-64
2021/04/13 08:01:20;;;;;;;;;7.00;6.00;;;;;11.73;42.57;99626.72;6183837;28;127354;-65
2021/04/13 08:04:25;;;;;;;;;5.00;4.00;;;;;11.72;42.91;99618.81;6192233;28;123543;-65
2021/04/13 08:07:31;;;;;;;;;4.50;4.00;;;;;11.66;43.07;99619.66;6206832;28;127151;-65
2021/04/13 08:10:36;;;;;;;;;5.00;5.00;;;;;11.64;42.99;99621.72;6203902;28;124742;-65
2021/04/13 08:13:42;;;;;;;;;4.80;4.40;;;;;11.81;42.71;99625.69;6190645;28;125920;-65
2021/04/13 08:16:45;;;;;;;;;6.20;5.40;;;;;11.76;42.29;99622.78;6208468;28;127122;-65
2021/04/13 08:20:04;;;;;;;;;4.75;4.75;;;;;11.83;42.40;99620.03;6214782;28;126038;-64
2021/04/13 08:23:10;;;;;;;;;5.00;4.00;;;;;11.85;42.92;99626.09;6210667;28;125971;-65
2021/04/13 08:26:41;;;;;;;;;5.00;4.00;;;;;11.80;42.33;99615.91;6225736;28;125753;-65
2021/04/13 08:29:49;;;;;;;;;7.00;6.00;;;;;11.73;43.19;99613.22;6197072;28;126115;-65
2021/04/13 08:33:06;;;;;;;;;7.00;7.00;;;;;11.72;43.42;99613.41;6170540;28;126377;-65
2021/04/13 08:36:15;;;;;;;;;7.00;6.00;;;;;11.74;43.37;99614.06;6204969;28;124913;-65
2021/04/13 08:39:26;;;;;;;;;5.75;5.75;;;;;11.77;42.59;99612.81;6172552;28;123888;-65
2021/04/13 08:42:33;;;;;;;;;7.60;7.20;;;;;11.83;43.11;99612.78;6205313;28;125367;-65
2021/04/13 08:45:40;;;;;;;;;6.00;5.00;;;;;11.88;43.10;99614.84;6206257;28;126073;-64
2021/04/13 08:48:49;;;;;;;;;7.50;6.00;;;;;11.88;42.93;99618.38;6183732;28;125996;-64
2021/04/13 08:52:13;;;;;;;;;6.00;5.20;;;;;11.87;43.22;99611.34;6192716;28;127020;-64
2021/04/13 08:55:19;;;;;;;;;5.60;5.60;;;;;11.78;43.64;99604.47;6180856;28;125954;-64
2021/04/13 08:58:42;;;;;;;;;6.00;6.00;;;;;11.93;43.58;99607.75;6191132;28;124961;-65
2021/04/13 09:02:08;;;;;;;;;7.25;6.00;;;;;11.94;43.78;99608.59;6192718;28;125905;-64
2021/04/13 09:05:14;;;;;;;;;6.40;6.20;;;;;12.09;42.98;99601.06;6186154;28;124688;-64
2021/04/13 09:08:34;;;;;;;;;6.50;6.50;;;;;12.08;43.22;99599.38;6206249;28;125916;-64
2021/04/13 09:11:47;;;;;;;;;6.00;6.00;;;;;12.09;42.56;99580.28;6186192;28;124863;-64
2021/04/13 09:15:20;;;;;;;;;8.00;7.00;;;;;12.24;42.75;99604.31;6208094;28;126439;-63
2021/04/13 09:18:30;;;;;;;;;7.00;6.75;;;;;12.27;42.87;99598.47;6168820;28;126797;-63
2021/04/13 09:21:40;;;;;;;;;8.00;7.40;;;;;12.25;43.20;99603.28;6204629;28;126990;-64
2021/04/13 09:24:45;;;;;;;;;7.00;7.00;;;;;12.18;43.32;99596.22;6172269;28;124756;-64
2021/04/13 09:28:00;;;;;;;;;6.80;6.00;;;;;12.20;43.03;99589.59;6208596;28;126640;-64
2021/04/13 09:31:09;;;;;;;;;7.00;6.00;;;;;12.20;43.39;99592.28;6208734;28;125972;-64
2021/04/13 09:34:13;;;;;;;;;7.00;7.00;;;;;12.21;42.40;99585.00;6188877;28;126871;-63
2021/04/13 09:37:29;;;;;;;;;7.00;6.00;;;;;12.28;42.69;99596.59;6186997;28;124990;-64
2021/04/13 09:40:38;;;;;;;;;9.00;9.00;;;;;12.41;42.89;99585.75;6186781;28;126147;-64
2021/04/13 09:44:15;;;;;;;;;8.00;8.00;;;;;12.48;42.25;99589.22;6207697;28;125968;-64
2021/04/13 09:47:33;;;;;;;;;8.00;7.00;;;;;12.52;41.76;99585.03;6188559;28;124415;-65
2021/04/13 09:50:44;;;;;;;;;7.00;7.00;;;;;12.52;42.21;99587.75;6210064;28;125966;-66
2021/04/13 09:54:16;;;;;;;;;6.00;6.00;;;;;12.51;41.69;99580.69;6203687;28;126601;-65
2021/04/13 09:57:53;;;;;;;;;8.00;8.00;;;;;12.54;42.29;99589.19;6181592;28;125873;-64
2021/04/13 10:01:01;;;;;;;;;7.40;7.00;;;;;12.49;42.13;99580.06;6163012;28;124768;-65
2021/04/13 10:04:21;;;;;;;;;7.20;7.20;;;;;12.52;42.43;99576.91;6203115;28;124258;-65
2021/04/13 10:07:38;;;;;;;;;8.00;7.60;;;;;12.54;41.68;99575.66;6210950;28;124344;-65
2021/04/13 10:10:57;;;;;;;;;6.50;6.00;;;;;12.33;41.17;99551.66;6207988;28;126055;-65
2021/04/13 10:14:24;;;;;;;;;8.00;8.00;;;;;12.43;41.79;99562.00;6208408;28;126039;-65
2021/04/13 10:17:41;;;;;;;;;7.80;7.00;;;;;12.50;41.53;99568.22;6200446;28;126421;-65
2021/04/13 10:20:54;;;;;;;;;8.00;8.00;;;;;12.41;41.96;99566.81;6195360;28;126008;-65
2021/04/13 10:24:27;;;;;;;;;8.00;7.00;;;;;12.48;41.61;99556.75;6200116;28;125097;-64
2021/04/13 10:27:57;;;;;;;;;6.50;6.50;;;;;12.59;41.57;99556.91;6199319;28;124803;-65
2021/04/13 10:31:22;;;;;;;;;8.00;8.00;;;;;12.63;41.89;99551.06;6208377;28;124545;-64
2021/04/13 10:35:09;;;;;;;;;8.40;8.40;;;;;12.71;42.30;99558.88;6205376;28;125887;-66
2021/04/13 10:38:58;;;;;;;;;7.75;7.75;;;;;12.86;41.47;99554.00;6205793;28;126121;-65
2021/04/13 10:42:35;;;;;;;;;11.40;10.40;;;;;12.93;41.63;99552.91;6156806;28;125090;-65
2021/04/13 10:46:01;;;;;;;;;9.00;9.00;;;;;12.94;40.58;99546.44;6205077;28;125765;-64
2021/04/13 10:49:35;;;;;;;;;9.80;8.00;;;;;12.94;40.53;99548.31;6198785;28;125985;-63
2021/04/13 10:53:17;;;;;;;;;7.00;7.00;;;;;13.00;40.29;99548.25;6171121;28;126019;-65
2021/04/13 10:56:54;;;;;;;;;8.50;8.00;;;;;13.03;39.83;99544.28;6217301;28;126507;-64
2021/04/13 11:00:32;;;;;;;;;8.75;7.75;;;;;13.08;40.59;99540.91;6216101;28;126042;-64
2021/04/13 11:04:10;;;;;;;;;6.00;5.50;;;;;13.11;39.91;99526.94;6184468;28;124824;-64
2021/04/13 11:07:57;;;;;;;;;5.20;5.00;;;;;13.14;39.54;99534.66;6184124;28;127008;-64
2021/04/13 11:11:37;;;;;;;;;7.00;7.00;;;;;13.15;39.45;99531.69;6210020;28;126629;-65
2021/04/13 11:15:11;;;;;;;;;7.00;6.00;;;;;13.24;39.66;99540.41;6222835;28;124626;-65
2021/04/13 11:18:40;;;;;;;;;5.20;5.20;;;;;13.31;39.91;99525.72;6193006;28;125661;-66
2021/04/13 11:22:15;;;;;;;;;6.50;6.00;;;;;13.44;39.80;99512.03;6211740;28;124090;-64
2021/04/13 11:26:02;;;;;;;;;6.00;6.00;;;;;13.41;39.29;99519.78;6184622;28;125967;-64
2021/04/13 11:29:50;;;;;;;;;6.00;5.00;;;;;13.58;39.65;99512.75;6208846;28;126615;-64
2021/04/13 11:33:17;;;;;;;;;4.50;4.50;;;;;13.69;39.12;99514.66;6199559;28;125911;-64
2021/04/13 11:36:41;;;;;;;;;3.00;3.00;;;;;13.76;38.25;99507.31;6209766;28;126557;-64
2021/04/13 11:40:12;;;;;;;;;3.00;3.00;;;;;13.87;38.05;99498.41;6208094;28;126046;-64
2021/04/13 11:43:17;;;;;;;;;4.00;4.00;;;;;13.97;38.86;99508.72;6154041;28;122915;-65
2021/04/13 11:46:25;;;;;;;;;7.00;6.00;;;;;13.95;37.56;99504.56;6208137;28;126104;-65
2021/04/13 11:49:35;;;;;;;;;6.00;6.00;;;;;13.98;38.14;99504.94;6208038;28;124933;-63
2021/04/13 11:52:45;;;;;;;;;4.00;4.00;;;;;14.04;38.03;99501.31;6208000;28;124575;-64
2021/04/13 11:56:03;;;;;;;;;4.80;4.80;;;;;13.84;37.79;99496.13;6208094;28;124688;-64
2021/04/13 11:59:24;;;;;;;;;4.75;4.00;;;;;14.01;37.28;99492.81;6209587;28;125035;-65
2021/04/13 12:02:29;;;;;;;;;3.00;3.00;;;;;14.01;37.80;99499.06;6202118;28;125314;-65
2021/04/13 12:05:45;;;;;;;;;3.20;3.20;;;;;13.99;37.45;99489.50;6190417;28;126471;-66
2021/04/13 12:08:52;;;;;;;;;4.00;4.00;;;;;14.09;37.45;99496.03;6193143;28;126501;-64
2021/04/13 12:11:55;;;;;;;;;5.00;5.00;;;;;14.04;37.31;99487.75;6192256;28;125816;-64
2021/04/13 12:14:58;;;;;;;;;3.00;3.00;;;;;14.01;37.38;99485.50;6187437;28;127662;-64
2021/04/13 12:18:01;;;;;;;;;4.00;4.00;;;;;14.16;37.42;99474.25;6207366;28;126869;-64
2021/04/13 12:21:36;;;;;;;;;4.00;3.25;;;;;14.13;36.89;99477.41;6193288;28;127327;-64
2021/04/13 12:24:52;;;;;;;;;4.60;4.60;;;;;14.05;37.61;99477.72;6202713;28;125948;-64
2021/04/13 12:28:04;;;;;;;;;3.50;3.00;;;;;13.91;37.54;99470.84;6208377;28;126049;-64
2021/04/13 12:31:22;;;;;;;;;6.20;5.80;;;;;13.62;38.03;99454.34;6202764;28;125846;-64
2021/04/13 12:34:46;;;;;;;;;5.25;5.25;;;;;13.63;38.80;99463.28;6204408;28;124093;-64
2021/04/13 12:37:49;;;;;;;;;5.50;5.00;;;;;13.52;39.22;99462.16;6210392;28;124252;-64
2021/04/13 12:41:11;;;;;;;;;7.60;5.60;;;;;13.44;39.56;99460.56;6160223;28;125077;-64
2021/04/13 12:44:23;;;;;;;;;7.00;6.00;;;;;13.38;39.84;99453.38;6167125;28;125369;-65
2021/04/13 12:47:33;;;;;;;;;4.60;4.60;;;;;13.39;40.51;99451.47;6185140;28;125596;-65
2021/04/13 12:50:39;;;;;;;;;6.00;5.00;;;;;13.41;41.12;99450.19;6185981;28;125889;-66
2021/04/13 12:53:41;;;;;;;;;5.00;5.00;;;;;13.35;39.35;99442.97;6184154;28;126166;-64
2021/04/13 12:56:53;;;;;;;;;6.00;5.80;;;;;13.33;39.31;99445.09;6167024;28;125664;-65
2021/04/13 13:00:09;;;;;;;;;7.00;7.00;;;;;13.20;39.48;99438.97;6149379;28;125073;-65
2021/04/13 13:03:18;;;;;;;;;6.00;6.00;;;;;13.32;39.52;99432.59;6180059;28;127575;-65
2021/04/13 13:06:27;;;;;;;;;5.40;5.40;;;;;13.35;39.91;99444.84;6165878;28;127719;-65
2021/04/13 13:09:32;;;;;;;;;5.00;5.00;;;;;13.39;39.73;99444.16;6165730;28;125063;-64
2021/04/13 13:12:37;;;;;;;;;7.40;7.00;;;;;13.43;40.08;99439.97;6183466;28;126034;-65
2021/04/13 13:15:41;;;;;;;;;5.25;5.25;;;;;13.39;40.49;99443.34;6178793;28;124788;-65
2021/04/13 13:18:46;;;;;;;;;5.75;5.00;;;;;13.34;40.46;99429.69;6165998;28;124627;-64
2021/04/13 13:21:51;;;;;;;;;6.50;6.00;;;;;13.43;40.91;99436.44;6189401;28;124519;-65
2021/04/13 13:24:55;;;;;;;;;6.00;5.40;;;;;13.33;40.75;99441.56;6166268;28;125839;-65
2021/04/13 13:28:05;;;;;;;;;8.00;7.00;;;;;13.09;41.29;99423.47;6165846;28;125270;-65
2021/04/13 13:31:25;;;;;;;;;5.40;5.00;;;;;13.07;40.89;99449.94;6182561;28;126433;-65
2021/04/13 13:34:27;;;;;;;;;5.00;5.00;;;;;13.07;41.23;99430.97;6183564;28;125604;-65
2021/04/13 13:37:33;;;;;;;;;4.40;4.40;;;;;12.77;41.54;99415.44;6181632;28;126436;-65
2021/04/13 13:40:39;;;;;;;;;6.00;5.00;;;;;12.96;41.56;99427.94;6193081;28;126122;-65
2021/04/13 13:43:48;;;;;;;;;5.00;5.00;;;;;12.96;41.88;99424.41;6190446;28;124937;-65
2021/04/13 13:47:04;;;;;;;;;5.00;5.00;;;;;13.03;42.28;99425.19;6205370;28;125163;-65
2021/04/13 13:50:27;;;;;;;;;7.00;7.00;;;;;13.03;41.79;99430.59;6207474;28;127191;-65
2021/04/13 13:53:30;;;;;;;;;4.50;4.50;;;;;13.03;41.45;99426.03;6184146;28;124770;-65
2021/04/13 13:56:35;;;;;;;;;5.00;4.60;;;;;13.13;42.31;99411.16;6184337;28;124138;-65
2021/04/13 13:59:45;;;;;;;;;6.00;6.00;;;;;13.19;41.50;99410.28;6205403;28;127109;-65
2021/04/13 14:02:48;;;;;;;;;5.40;5.00;;;;;13.19;40.85;99416.50;6208751;28;127562;-65
2021/04/13 14:05:53;;;;;;;;;6.40;6.00;;;;;13.10;41.10;99406.97;6205502;28;127366;-66
2021/04/13 14:09:09;;;;;;;;;7.00;7.00;;;;;13.16;40.89;99410.69;6207191;28;125487;-65
2021/04/13 14:12:32;;;;;;;;;6.50;5.00;;;;;13.11;41.71;99407.81;6209001;28;126019;-64
2021/04/13 14:15:39;;;;;;;;;8.00;6.00;;;;;12.95;41.79;99393.00;6189464;28;124688;-64
2021/04/13 14:18:51;;;;;;;;;6.00;6.00;;;;;13.10;41.47;99395.31;6191975;28;127087;-64
2021/04/13 14:21:55;;;;;;;;;6.75;5.75;;;;;13.11;42.32;99395.13;6191167;28;124873;-65
2021/04/13 14:25:12;;;;;;;;;7.00;7.00;;;;;13.19;41.65;99391.31;6211243;28;126243;-65
2021/04/13 14:28:21;;;;;;;;;7.75;6.50;;;;;13.19;41.01;99394.03;6190721;28;126045;-65
2021/04/13 14:31:23;;;;;;;;;7.00;6.00;;;;;13.06;41.32;99396.84;6211507;28;125802;-64
2021/04/13 14:34:29;;;;;;;;;7.00;6.40;;;;;12.85;42.04;99392.72;6207897;28;125867;-66
2021/04/13 14:37:34;;;;;;;;;8.00;7.00;;;;;13.00;42.52;99399.38;6163465;28;126147;-63
2021/04/13 14:40:37;;;;;;;;;7.40;7.40;;;;;12.99;42.38;99392.34;6200739;28;126446;-64